createdAt,value
2022-10-29T00:00:13.928Z,12.38
2022-10-29T00:02:41.967Z,12.44
2022-10-29T00:05:10.265Z,12.92
2022-10-29T00:07:38.241Z,13.05
2022-10-29T00:10:06.780Z,12.71
2022-10-29T00:12:36.423Z,12.61
2022-10-29T00:15:04.556Z,12.55
2022-10-29T00:17:32.828Z,12.55
2022-10-29T00:20:00.503Z,12.42
2022-10-29T00:22:28.230Z,12.41
2022-10-29T00:24:55.863Z,12.42
2022-10-29T00:27:23.831Z,12.21
2022-10-29T00:29:52.998Z,12.15
2022-10-29T00:32:21.172Z,12.04
2022-10-29T00:34:49.056Z,12.03
2022-10-29T00:37:17.170Z,12.04
2022-10-29T00:39:44.825Z,12.02
2022-10-29T00:42:16.624Z,12.00
2022-10-29T00:44:44.596Z,12.02
2022-10-29T00:47:21.744Z,12.07
2022-10-29T00:49:52.230Z,12.06
2022-10-29T00:52:22.613Z,12.07
2022-10-29T00:54:51.426Z,12.11
2022-10-29T00:57:23.596Z,12.08
2022-10-29T00:59:51.781Z,12.09
2022-10-29T01:02:22.497Z,12.10
2022-10-29T01:04:51.724Z,12.17
2022-10-29T01:07:20.503Z,12.20
2022-10-29T01:09:48.496Z,12.27
2022-10-29T01:12:33.632Z,12.34
2022-10-29T01:15:10.551Z,12.34
2022-10-29T01:17:53.931Z,12.34
2022-10-29T01:21:00.204Z,12.38
2022-10-29T01:23:55.951Z,12.42
2022-10-29T01:26:49.016Z,12.35
2022-10-29T01:29:35.249Z,12.29
2022-10-29T01:32:10.036Z,12.24
2022-10-29T01:34:43.353Z,12.22
2022-10-29T01:37:21.788Z,12.22
2022-10-29T01:39:57.904Z,12.20
2022-10-29T01:42:33.009Z,12.20
2022-10-29T01:45:09.022Z,12.22
2022-10-29T01:47:42.900Z,12.28
2022-10-29T01:50:15.311Z,12.32
2022-10-29T01:52:44.505Z,12.36
2022-10-29T01:55:12.205Z,12.42
2022-10-29T01:57:40.465Z,12.40
2022-10-29T02:00:11.795Z,12.38
2022-10-29T02:02:56.250Z,12.32
2022-10-29T02:05:32.762Z,12.29
2022-10-29T02:08:07.903Z,12.19
2022-10-29T02:10:41.801Z,11.83
2022-10-29T02:13:14.162Z,11.75
2022-10-29T02:15:47.694Z,11.19
2022-10-29T02:18:17.931Z,11.26
2022-10-29T02:20:47.166Z,11.30
2022-10-29T02:23:17.035Z,11.31
2022-10-29T02:25:44.870Z,11.19
2022-10-29T02:28:13.491Z,11.18
2022-10-29T02:30:41.170Z,11.17
2022-10-29T02:33:09.168Z,11.20
2022-10-29T02:35:38.132Z,11.29
2022-10-29T02:38:06.052Z,11.36
2022-10-29T02:40:33.684Z,11.42
2022-10-29T02:43:01.628Z,11.41
2022-10-29T02:45:29.258Z,11.31
2022-10-29T02:47:57.797Z,11.13
2022-10-29T02:50:25.719Z,11.17
2022-10-29T02:52:55.311Z,11.28
2022-10-29T02:55:23.087Z,11.30
2022-10-29T02:57:51.044Z,11.34
2022-10-29T03:00:19.473Z,11.39
2022-10-29T03:02:47.575Z,11.35
2022-10-29T03:05:15.443Z,11.30
2022-10-29T03:07:43.654Z,11.31
2022-10-29T03:10:12.731Z,11.29
2022-10-29T03:12:41.175Z,11.18
2022-10-29T03:15:09.745Z,11.25
2022-10-29T03:17:37.383Z,11.20
2022-10-29T03:20:05.971Z,11.28
2022-10-29T03:22:34.037Z,11.17
2022-10-29T03:25:01.674Z,11.05
2022-10-29T03:27:31.380Z,10.98
2022-10-29T03:29:59.019Z,10.98
2022-10-29T03:32:27.254Z,11.11
2022-10-29T03:34:57.542Z,11.10
2022-10-29T03:37:27.966Z,11.23
2022-10-29T03:39:55.625Z,11.17
2022-10-29T03:42:24.024Z,11.19
2022-10-29T03:44:53.005Z,11.13
2022-10-29T03:47:21.071Z,11.16
2022-10-29T03:49:48.687Z,11.16
2022-10-29T03:52:16.955Z,11.20
2022-10-29T03:54:44.657Z,11.23
2022-10-29T03:57:12.756Z,11.25
2022-10-29T03:59:40.408Z,11.20
2022-10-29T04:02:10.147Z,11.22
2022-10-29T04:04:38.227Z,11.21
2022-10-29T04:07:06.091Z,11.09
2022-10-29T04:09:34.186Z,11.07
2022-10-29T04:12:02.017Z,11.13
2022-10-29T04:14:30.312Z,11.11
2022-10-29T04:16:59.318Z,11.01
2022-10-29T04:19:28.622Z,10.92
2022-10-29T04:24:48.564Z,10.96
2022-10-29T04:30:20.680Z,11.18
2022-10-29T04:32:48.713Z,11.11
2022-10-29T04:35:18.051Z,11.21
2022-10-29T04:37:46.366Z,11.27
2022-10-29T04:40:14.011Z,11.35
2022-10-29T04:42:42.572Z,11.38
2022-10-29T04:45:10.924Z,11.39
2022-10-29T04:47:38.586Z,11.38
2022-10-29T04:50:06.689Z,11.45
2022-10-29T04:52:35.993Z,11.52
2022-10-29T04:55:03.809Z,11.56
2022-10-29T04:57:32.010Z,11.61
2022-10-29T04:59:59.646Z,11.68
2022-10-29T05:02:27.560Z,11.78
2022-10-29T05:04:55.185Z,12.06
2022-10-29T05:07:22.893Z,12.26
2022-10-29T05:09:51.877Z,12.39
2022-10-29T05:12:19.547Z,12.49
2022-10-29T05:14:47.297Z,12.53
2022-10-29T05:17:14.968Z,12.53
2022-10-29T05:19:42.592Z,12.56
2022-10-29T05:22:11.294Z,12.55
2022-10-29T05:24:38.950Z,12.51
2022-10-29T05:27:09.233Z,12.52
2022-10-29T05:29:36.926Z,12.59
2022-10-29T05:32:04.900Z,12.76
2022-10-29T05:34:32.708Z,12.80
2022-10-29T05:37:00.345Z,12.77
2022-10-29T05:39:28.507Z,12.81
2022-10-29T05:41:56.145Z,12.80
2022-10-29T05:44:25.708Z,12.71
2022-10-29T05:46:53.346Z,12.72
2022-10-29T05:49:21.234Z,12.80
2022-10-29T05:51:48.893Z,12.77
2022-10-29T05:54:16.524Z,12.64
2022-10-29T05:56:44.151Z,12.54
2022-10-29T05:59:12.439Z,12.44
2022-10-29T06:01:41.523Z,12.54
2022-10-29T06:04:09.690Z,12.50
2022-10-29T06:06:38.008Z,12.47
2022-10-29T06:09:06.229Z,12.56
2022-10-29T06:11:34.062Z,12.56
2022-10-29T06:14:02.222Z,12.60
2022-10-29T06:16:29.861Z,12.65
2022-10-29T06:18:59.554Z,12.65
2022-10-29T06:21:27.227Z,12.72
2022-10-29T06:23:55.780Z,12.76
2022-10-29T06:26:23.560Z,12.78
2022-10-29T06:28:52.168Z,12.82
2022-10-29T06:31:19.816Z,12.88
2022-10-29T06:33:47.473Z,12.91
2022-10-29T06:36:16.444Z,12.92
2022-10-29T06:38:44.334Z,12.98
2022-10-29T06:41:11.981Z,13.02
2022-10-29T06:43:40.439Z,13.07
2022-10-29T06:46:08.649Z,13.11
2022-10-29T06:48:36.782Z,13.18
2022-10-29T06:51:04.517Z,13.23
2022-10-29T06:53:33.684Z,13.31
2022-10-29T06:56:01.339Z,13.38
2022-10-29T06:58:29.320Z,13.43
2022-10-29T07:03:25.830Z,13.55
2022-10-29T07:05:57.199Z,13.65
2022-10-29T07:08:25.283Z,13.81
2022-10-29T07:10:55.302Z,13.99
2022-10-29T07:13:23.342Z,13.98
2022-10-29T07:15:50.981Z,14.01
2022-10-29T07:18:19.098Z,14.04
2022-10-29T07:20:46.837Z,14.09
2022-10-29T07:23:15.088Z,14.11
2022-10-29T07:25:43.052Z,14.20
2022-10-29T07:28:16.880Z,14.26
2022-10-29T07:30:45.444Z,14.36
2022-10-29T07:33:13.868Z,14.43
2022-10-29T07:35:41.877Z,14.48
2022-10-29T07:38:11.728Z,14.52
2022-10-29T07:40:40.773Z,14.67
2022-10-29T07:43:10.080Z,14.65
2022-10-29T07:45:39.114Z,14.79
2022-10-29T07:48:08.520Z,14.91
2022-10-29T07:50:36.568Z,15.02
2022-10-29T07:53:05.839Z,15.19
2022-10-29T07:55:33.603Z,15.30
2022-10-29T07:58:03.295Z,15.43
2022-10-29T08:00:32.376Z,15.53
2022-10-29T08:03:01.362Z,15.49
2022-10-29T08:05:30.874Z,15.51
2022-10-29T08:07:59.941Z,15.71
2022-10-29T08:10:29.484Z,15.72
2022-10-29T08:12:59.321Z,15.84
2022-10-29T08:15:28.313Z,15.99
2022-10-29T08:17:56.415Z,16.12
2022-10-29T08:20:27.863Z,16.17
2022-10-29T08:22:56.085Z,16.54
2022-10-29T08:25:26.214Z,16.98
2022-10-29T08:28:00.803Z,17.54
2022-10-29T08:30:29.613Z,18.19
2022-10-29T08:32:57.829Z,19.07
2022-10-29T08:35:27.896Z,19.78
2022-10-29T08:37:55.827Z,20.76
2022-10-29T08:40:30.495Z,21.21
2022-10-29T08:43:40.991Z,21.64
2022-10-29T08:46:20.025Z,22.64
2022-10-29T08:48:53.065Z,23.12
2022-10-29T08:51:27.088Z,23.31
2022-10-29T08:56:49.796Z,23.50
2022-10-29T08:59:20.050Z,23.71
2022-10-29T09:01:48.412Z,24.03
2022-10-29T09:04:28.336Z,24.65
2022-10-29T09:07:14.942Z,25.00
2022-10-29T09:09:46.322Z,25.55
2022-10-29T09:12:30.915Z,26.09
2022-10-29T09:15:19.470Z,25.90
2022-10-29T09:17:54.225Z,25.70
2022-10-29T09:20:30.837Z,25.51
2022-10-29T09:23:10.399Z,25.71
2022-10-29T09:25:46.678Z,26.43
2022-10-29T09:28:29.190Z,27.03
2022-10-29T09:31:06.811Z,27.21
2022-10-29T09:33:34.609Z,27.21
2022-10-29T09:36:03.345Z,27.40
2022-10-29T09:38:35.707Z,27.83
2022-10-29T09:41:05.184Z,28.33
2022-10-29T09:43:40.991Z,28.77
2022-10-29T09:46:20.111Z,29.48
2022-10-29T09:49:00.705Z,29.81
2022-10-29T09:51:39.023Z,29.71
2022-10-29T09:54:08.687Z,28.88
2022-10-29T09:56:36.542Z,29.03
2022-10-29T09:59:13.076Z,29.31
2022-10-29T10:01:41.098Z,29.63
2022-10-29T10:04:16.637Z,29.86
2022-10-29T10:07:03.657Z,30.21
2022-10-29T10:09:51.909Z,30.71
2022-10-29T10:12:20.929Z,31.00
2022-10-29T10:14:49.352Z,31.16
2022-10-29T10:17:17.183Z,30.98
2022-10-29T10:19:49.121Z,31.02
2022-10-29T10:22:20.048Z,30.93
2022-10-29T10:24:49.417Z,31.02
2022-10-29T10:27:30.476Z,31.15
2022-10-29T10:30:13.863Z,31.41
2022-10-29T10:32:41.522Z,31.63
2022-10-29T10:35:30.058Z,31.85
2022-10-29T10:37:59.771Z,31.68
2022-10-29T10:40:30.249Z,31.41
2022-10-29T10:42:57.896Z,31.01
2022-10-29T10:45:29.034Z,31.03
2022-10-29T10:47:59.353Z,31.40
2022-10-29T10:50:30.289Z,31.49
2022-10-29T10:53:01.035Z,31.18
2022-10-29T10:55:34.260Z,31.12
2022-10-29T10:58:10.138Z,30.71
2022-10-29T11:00:45.090Z,30.21
2022-10-29T11:03:19.397Z,30.11
2022-10-29T11:05:56.208Z,29.59
2022-10-29T11:08:28.021Z,29.24
2022-10-29T11:11:03.021Z,28.94
2022-10-29T11:13:33.777Z,28.84
2022-10-29T11:16:09.284Z,28.56
2022-10-29T11:18:41.005Z,28.40
2022-10-29T11:21:15.589Z,28.57
2022-10-29T11:23:50.321Z,28.83
2022-10-29T11:26:28.179Z,28.74
2022-10-29T11:29:01.543Z,28.68
2022-10-29T11:31:38.548Z,28.72
2022-10-29T11:34:15.314Z,28.88
2022-10-29T11:36:50.035Z,29.01
2022-10-29T11:39:23.905Z,29.38
2022-10-29T11:41:58.557Z,29.40
2022-10-29T11:44:27.923Z,29.28
2022-10-29T11:47:11.169Z,29.23
2022-10-29T11:49:54.067Z,29.08
2022-10-29T11:52:34.763Z,29.07
2022-10-29T11:55:17.694Z,29.15
2022-10-29T11:57:54.861Z,29.12
2022-10-29T12:00:24.720Z,29.11
2022-10-29T12:03:17.911Z,29.05
2022-10-29T12:05:55.336Z,29.04
2022-10-29T12:08:38.676Z,29.24
2022-10-29T12:11:18.253Z,29.38
2022-10-29T12:13:58.785Z,29.37
2022-10-29T12:16:38.139Z,29.27
2022-10-29T12:19:14.886Z,29.24
2022-10-29T12:21:51.881Z,29.26
2022-10-29T12:24:50.751Z,29.10
2022-10-29T12:27:24.992Z,28.91
2022-10-29T12:29:59.932Z,28.69
2022-10-29T12:32:34.492Z,28.48
2022-10-29T12:35:12.613Z,28.32
2022-10-29T12:37:48.428Z,28.26
2022-10-29T12:40:20.756Z,28.16
2022-10-29T12:42:50.717Z,28.12
2022-10-29T12:45:34.759Z,28.04
2022-10-29T12:48:09.296Z,27.96
2022-10-29T12:50:47.650Z,27.82
2022-10-29T12:53:26.279Z,27.72
2022-10-29T12:55:54.507Z,27.54
2022-10-29T12:58:45.745Z,27.36
2022-10-29T13:02:10.424Z,27.30
2022-10-29T13:04:37.731Z,27.22
2022-10-29T13:07:23.673Z,27.18
2022-10-29T13:10:31.056Z,27.12
2022-10-29T13:13:02.963Z,27.04
2022-10-29T13:15:35.225Z,26.99
2022-10-29T13:18:10.265Z,26.92
2022-10-29T13:20:40.587Z,26.87
2022-10-29T13:23:35.227Z,26.84
2022-10-29T13:26:03.858Z,26.82
2022-10-29T13:28:52.941Z,26.77
2022-10-29T13:31:48.687Z,26.73
2022-10-29T13:34:56.314Z,26.70
2022-10-29T13:38:03.138Z,26.70
2022-10-29T13:41:01.163Z,26.67
2022-10-29T13:43:30.539Z,26.62
2022-10-29T13:46:43.964Z,26.59
2022-10-29T13:49:18.413Z,26.54
2022-10-29T13:51:52.998Z,26.51
2022-10-29T13:57:01.160Z,26.43
2022-10-29T13:59:41.445Z,26.40
2022-10-29T14:02:47.687Z,26.30
2022-10-29T14:05:20.054Z,26.22
2022-10-29T14:07:56.288Z,26.23
2022-10-29T14:10:27.829Z,26.21
2022-10-29T14:13:01.551Z,26.18
2022-10-29T14:15:29.241Z,26.13
2022-10-29T14:17:57.198Z,26.09
2022-10-29T14:20:27.635Z,26.07
2022-10-29T14:22:57.291Z,26.04
2022-10-29T14:25:31.264Z,26.03
2022-10-29T14:28:22.483Z,26.04
2022-10-29T14:31:01.124Z,26.04
2022-10-29T14:33:31.074Z,26.01
2022-10-29T14:36:06.487Z,26.00
2022-10-29T14:38:42.610Z,26.01
2022-10-29T14:41:11.285Z,26.08
2022-10-29T14:43:40.881Z,26.05
2022-10-29T14:46:18.266Z,25.94
2022-10-29T14:48:56.322Z,25.78
2022-10-29T14:51:24.536Z,25.69
2022-10-29T14:53:58.350Z,25.60
2022-10-29T14:56:33.364Z,25.47
2022-10-29T14:59:04.263Z,25.36
2022-10-29T15:01:32.186Z,25.24
2022-10-29T15:04:02.197Z,25.14
2022-10-29T15:06:30.649Z,25.01
2022-10-29T15:09:04.045Z,24.89
2022-10-29T15:11:37.698Z,24.74
2022-10-29T15:14:24.929Z,24.60
2022-10-29T15:16:52.876Z,24.47
2022-10-29T15:19:22.902Z,24.31
2022-10-29T15:21:50.860Z,24.15
2022-10-29T15:24:23.946Z,24.04
2022-10-29T15:26:53.909Z,23.91
2022-10-29T15:29:30.599Z,23.77
2022-10-29T15:32:01.297Z,23.62
2022-10-29T15:34:33.337Z,23.49
2022-10-29T15:37:20.724Z,23.34
2022-10-29T15:40:08.959Z,23.17
2022-10-29T15:42:37.677Z,23.03
2022-10-29T15:45:24.289Z,22.88
2022-10-29T15:47:57.045Z,22.70
2022-10-29T15:50:28.025Z,22.58
2022-10-29T15:52:59.284Z,22.41
2022-10-29T15:55:30.905Z,22.27
2022-10-29T15:58:03.840Z,22.08
2022-10-29T16:00:32.470Z,21.84
2022-10-29T16:03:07.385Z,21.66
2022-10-29T16:05:35.102Z,21.44
2022-10-29T16:08:04.084Z,21.27
2022-10-29T16:10:33.856Z,21.09
2022-10-29T16:13:01.845Z,20.92
2022-10-29T16:15:29.531Z,20.80
2022-10-29T16:17:57.467Z,20.70
2022-10-29T16:20:25.225Z,20.60
2022-10-29T16:22:53.235Z,20.51
2022-10-29T16:25:23.995Z,20.40
2022-10-29T16:27:53.285Z,20.19
2022-10-29T16:30:22.651Z,20.11
2022-10-29T16:32:50.968Z,20.01
2022-10-29T16:35:22.367Z,19.90
2022-10-29T16:37:51.221Z,19.82
2022-10-29T16:40:20.084Z,19.73
2022-10-29T16:42:48.680Z,19.63
2022-10-29T16:45:20.583Z,19.56
2022-10-29T16:47:48.849Z,19.48
2022-10-29T16:50:17.952Z,19.39
2022-10-29T16:52:46.343Z,19.37
2022-10-29T16:55:14.233Z,19.28
2022-10-29T16:57:42.667Z,19.22
2022-10-29T17:00:11.276Z,19.14
2022-10-29T17:02:42.566Z,19.04
2022-10-29T17:05:10.580Z,18.87
2022-10-29T17:07:39.443Z,18.73
2022-10-29T17:10:08.003Z,18.70
2022-10-29T17:12:37.124Z,18.61
2022-10-29T17:15:05.314Z,18.47
2022-10-29T17:17:33.028Z,18.41
2022-10-29T17:20:01.994Z,18.34
2022-10-29T17:22:30.299Z,18.27
2022-10-29T17:24:57.925Z,18.25
2022-10-29T17:27:26.272Z,18.16
2022-10-29T17:29:53.916Z,18.12
2022-10-29T17:32:21.875Z,18.09
2022-10-29T17:34:49.731Z,18.04
2022-10-29T17:37:19.388Z,17.94
2022-10-29T17:39:47.028Z,17.87
2022-10-29T17:42:14.947Z,17.77
2022-10-29T17:44:42.616Z,17.70
2022-10-29T17:47:11.362Z,17.64
2022-10-29T17:49:39.004Z,17.63
2022-10-29T17:52:07.153Z,17.60
2022-10-29T17:54:36.510Z,17.58
2022-10-29T17:57:04.281Z,17.54
2022-10-29T17:59:31.928Z,17.44
2022-10-29T18:01:59.651Z,17.37
2022-10-29T18:04:28.298Z,17.37
2022-10-29T18:06:56.979Z,17.21
2022-10-29T18:09:24.931Z,17.17
2022-10-29T18:11:53.887Z,17.11
2022-10-29T18:14:21.809Z,17.01
2022-10-29T18:16:49.436Z,16.91
2022-10-29T18:19:17.539Z,16.82
2022-10-29T18:21:45.221Z,16.76
2022-10-29T18:24:13.479Z,16.71
2022-10-29T18:26:41.664Z,16.67
2022-10-29T18:29:13.343Z,16.66
2022-10-29T18:31:44.833Z,16.63
2022-10-29T18:34:14.673Z,16.56
2022-10-29T18:36:42.922Z,16.50
2022-10-29T18:39:10.936Z,16.46
2022-10-29T18:41:39.472Z,16.36
2022-10-29T18:44:07.848Z,16.35
2022-10-29T18:46:36.837Z,16.32
2022-10-29T18:49:04.501Z,16.24
2022-10-29T18:51:33.589Z,16.13
2022-10-29T18:54:01.933Z,15.97
2022-10-29T18:56:31.092Z,15.87
2022-10-29T18:59:00.274Z,15.78
2022-10-29T19:01:30.369Z,15.70
2022-10-29T19:04:01.433Z,15.59
2022-10-29T19:06:31.446Z,15.54
2022-10-29T19:09:03.294Z,15.51
2022-10-29T19:11:30.973Z,15.50
2022-10-29T19:14:00.627Z,15.47
2022-10-29T19:16:29.146Z,15.43
2022-10-29T19:18:59.783Z,15.43
2022-10-29T19:21:28.307Z,15.28
2022-10-29T19:23:56.944Z,15.22
2022-10-29T19:26:26.034Z,15.17
2022-10-29T19:28:54.409Z,15.07
2022-10-29T19:31:23.989Z,15.00
2022-10-29T19:33:53.710Z,14.98
2022-10-29T19:36:23.973Z,14.97
2022-10-29T19:38:52.147Z,14.98
2022-10-29T19:41:20.323Z,14.95
2022-10-29T19:43:48.493Z,14.93
2022-10-29T19:46:18.051Z,14.88
2022-10-29T19:51:40.354Z,14.87
2022-10-29T19:54:08.464Z,14.88
2022-10-29T19:56:36.128Z,14.86
2022-10-29T19:59:04.637Z,14.84
2022-10-29T20:01:32.519Z,14.80
2022-10-29T20:04:00.761Z,14.66
2022-10-29T20:06:28.431Z,14.62
2022-10-29T20:08:57.610Z,14.62
2022-10-29T20:11:25.258Z,14.57
2022-10-29T20:13:52.994Z,14.52
2022-10-29T20:16:22.203Z,14.47
2022-10-29T20:18:51.181Z,14.45
2022-10-29T20:21:18.933Z,14.35
2022-10-29T20:23:47.458Z,14.27
2022-10-29T20:26:16.649Z,14.26
2022-10-29T20:28:44.772Z,14.27
2022-10-29T20:31:30.147Z,14.26
2022-10-29T20:34:00.665Z,14.23
2022-10-29T20:36:30.836Z,14.19
2022-10-29T20:38:59.491Z,14.15
2022-10-29T20:41:29.248Z,14.07
2022-10-29T20:43:59.356Z,14.05
2022-10-29T20:46:27.401Z,14.05
2022-10-29T20:48:55.095Z,14.02
2022-10-29T20:51:23.503Z,14.02
2022-10-29T20:53:52.295Z,14.03
2022-10-29T20:56:20.521Z,14.00
2022-10-29T20:58:49.565Z,14.00
2022-10-29T21:01:19.822Z,13.99
2022-10-29T21:03:49.906Z,14.01
2022-10-29T21:06:18.458Z,13.97
2022-10-29T21:08:46.691Z,13.97
2022-10-29T21:11:15.740Z,13.97
2022-10-29T21:13:43.770Z,13.89
2022-10-29T21:16:17.783Z,13.82
2022-10-29T21:18:46.964Z,13.67
2022-10-29T21:21:15.573Z,13.57
2022-10-29T21:23:43.755Z,13.48
2022-10-29T21:26:15.537Z,13.47
2022-10-29T21:28:43.215Z,13.26
2022-10-29T21:31:11.176Z,13.29
2022-10-29T21:33:40.428Z,13.25
2022-10-29T21:36:09.001Z,13.20
2022-10-29T21:38:36.701Z,13.18
2022-10-29T21:41:04.386Z,13.18
2022-10-29T21:43:32.267Z,13.19
2022-10-29T21:45:59.946Z,13.21
2022-10-29T21:48:28.663Z,13.22
2022-10-29T21:51:03.225Z,13.26
2022-10-29T21:53:31.078Z,13.27
2022-10-29T21:55:59.523Z,13.29
2022-10-29T21:58:27.566Z,13.32
2022-10-29T22:01:03.984Z,13.35
2022-10-29T22:03:32.509Z,13.35
2022-10-29T22:06:11.285Z,13.36
2022-10-29T22:08:39.651Z,13.38
2022-10-29T22:11:08.152Z,13.41
2022-10-29T22:13:36.731Z,13.49
2022-10-29T22:16:05.981Z,13.51
2022-10-29T22:18:34.743Z,13.52
2022-10-29T22:21:09.130Z,13.48
2022-10-29T22:23:38.156Z,13.42
2022-10-29T22:26:06.270Z,13.34
2022-10-29T22:28:33.897Z,13.21
2022-10-29T22:31:03.228Z,13.00
2022-10-29T22:33:32.708Z,12.85
2022-10-29T22:36:07.920Z,12.59
2022-10-29T22:38:35.581Z,12.59
2022-10-29T22:41:07.756Z,12.64
2022-10-29T22:43:35.956Z,12.73
2022-10-29T22:46:05.337Z,12.81
2022-10-29T22:48:33.589Z,12.86
2022-10-29T22:51:03.259Z,12.95
2022-10-29T22:53:32.999Z,13.04
2022-10-29T22:56:01.462Z,13.07
2022-10-29T22:58:29.448Z,13.11
2022-10-29T23:01:05.330Z,13.16
2022-10-29T23:03:33.456Z,13.16
2022-10-29T23:06:03.140Z,13.14
2022-10-29T23:08:32.274Z,13.07
2022-10-29T23:11:00.465Z,12.87
2022-10-29T23:13:28.103Z,12.95
2022-10-29T23:15:56.122Z,12.99
2022-10-29T23:18:23.777Z,12.91
2022-10-29T23:20:59.038Z,12.82
2022-10-29T23:23:26.709Z,12.69
2022-10-29T23:26:00.921Z,12.54
2022-10-29T23:28:29.212Z,12.49
2022-10-29T23:30:58.228Z,12.48
2022-10-29T23:33:25.951Z,12.55
2022-10-29T23:35:53.801Z,12.60
2022-10-29T23:38:21.572Z,12.62
2022-10-29T23:40:50.013Z,12.67
2022-10-29T23:43:19.005Z,12.67
2022-10-29T23:45:47.185Z,12.70
2022-10-29T23:48:14.844Z,12.68
2022-10-29T23:50:42.666Z,12.66
2022-10-29T23:53:10.855Z,12.64
2022-10-29T23:55:39.149Z,12.63
2022-10-29T23:58:06.799Z,12.59
